createdAt,value
2022-11-17T00:00:12.216Z,77.40
2022-11-17T00:02:38.905Z,78.80
2022-11-17T00:07:32.764Z,75.90
2022-11-17T00:12:45.246Z,75.40
2022-11-17T00:22:51.699Z,75.40
2022-11-17T00:25:18.296Z,75.90
2022-11-17T00:30:32.244Z,75.50
2022-11-17T00:33:21.256Z,77.20
2022-11-17T00:35:54.259Z,77.80
2022-11-17T00:38:20.860Z,77.60
2022-11-17T00:48:08.573Z,80.40
2022-11-17T00:53:02.252Z,80.30
2022-11-17T00:55:28.979Z,79.80
2022-11-17T01:02:49.704Z,78.80
2022-11-17T01:05:16.356Z,80.10
2022-11-17T01:07:43.058Z,80.30
2022-11-17T01:10:09.782Z,80.00
2022-11-17T01:12:36.392Z,79.40
2022-11-17T01:17:30.074Z,78.60
2022-11-17T01:19:56.705Z,78.60
2022-11-17T01:27:17.435Z,78.50
2022-11-17T01:29:45.445Z,79.80
2022-11-17T01:32:12.046Z,80.90
2022-11-17T01:34:38.667Z,81.30
2022-11-17T01:42:16.515Z,79.20
2022-11-17T01:44:52.325Z,80.90
2022-11-17T01:52:13.561Z,80.50
2022-11-17T01:59:35.901Z,80.10
2022-11-17T02:02:02.587Z,81.80
2022-11-17T02:04:30.751Z,82.10
2022-11-17T02:11:51.586Z,79.80
2022-11-17T02:14:18.201Z,81.20
2022-11-17T02:21:57.297Z,80.20
2022-11-17T02:24:37.102Z,80.60
2022-11-17T02:27:15.927Z,81.70
2022-11-17T02:34:36.791Z,80.50
2022-11-17T02:42:13.966Z,80.30
2022-11-17T02:44:43.040Z,81.30
2022-11-17T02:47:15.639Z,81.60
2022-11-17T02:49:45.188Z,82.20
2022-11-17T02:52:12.356Z,82.20
2022-11-17T02:54:38.997Z,81.70
2022-11-17T02:57:05.716Z,82.80
2022-11-17T03:04:31.874Z,80.30
2022-11-17T03:07:10.036Z,80.80
2022-11-17T03:14:36.291Z,79.50
2022-11-17T03:17:07.891Z,80.60
2022-11-17T03:19:57.471Z,81.30
2022-11-17T03:22:27.939Z,81.00
2022-11-17T03:29:50.661Z,79.20
2022-11-17T03:32:18.003Z,80.80
2022-11-17T03:34:49.303Z,81.00
2022-11-17T03:37:18.718Z,80.90
2022-11-17T03:39:49.516Z,81.40
2022-11-17T03:42:22.021Z,81.50
2022-11-17T03:45:06.786Z,81.80
2022-11-17T03:47:34.161Z,81.60
2022-11-17T03:50:06.777Z,81.30
2022-11-17T03:52:34.049Z,82.10
2022-11-17T03:55:01.384Z,82.30
2022-11-17T03:57:36.904Z,82.10
2022-11-17T04:00:08.457Z,81.80
2022-11-17T04:02:44.738Z,81.80
2022-11-17T04:05:12.220Z,82.00
2022-11-17T04:07:42.389Z,81.90
2022-11-17T04:10:16.686Z,81.40
2022-11-17T04:13:01.716Z,80.50
2022-11-17T04:15:46.755Z,81.50
2022-11-17T04:18:13.846Z,82.60
2022-11-17T04:20:40.561Z,82.00
2022-11-17T04:23:09.129Z,82.70
2022-11-17T04:25:55.103Z,83.40
2022-11-17T04:28:37.172Z,84.20
2022-11-17T04:31:23.176Z,84.90
2022-11-17T04:33:51.371Z,84.60
2022-11-17T04:38:46.599Z,83.20
2022-11-17T04:43:59.237Z,82.00
2022-11-17T04:46:26.601Z,83.80
2022-11-17T04:48:54.288Z,85.00
2022-11-17T04:51:21.383Z,85.10
2022-11-17T04:53:48.468Z,85.20
2022-11-17T04:56:15.680Z,81.70
2022-11-17T04:58:42.492Z,77.80
2022-11-17T05:03:44.002Z,77.30
2022-11-17T05:06:11.587Z,78.20
2022-11-17T05:08:38.881Z,79.70
2022-11-17T05:11:24.744Z,80.20
2022-11-17T05:13:51.676Z,81.40
2022-11-17T05:16:37.297Z,82.20
2022-11-17T05:19:04.901Z,82.40
2022-11-17T05:21:31.648Z,82.80
2022-11-17T05:23:58.476Z,82.90
2022-11-17T05:26:26.416Z,82.90
2022-11-17T05:28:54.464Z,83.10
2022-11-17T05:31:21.299Z,83.30
2022-11-17T05:33:47.941Z,83.30
2022-11-17T05:36:14.877Z,83.50
2022-11-17T05:38:41.513Z,83.50
2022-11-17T05:41:08.125Z,84.10
2022-11-17T05:43:35.184Z,84.00
2022-11-17T05:46:01.967Z,84.20
2022-11-17T05:48:28.651Z,84.10
2022-11-17T05:50:56.047Z,84.50
2022-11-17T05:53:23.173Z,84.70
2022-11-17T05:55:50.164Z,84.90
2022-11-17T05:58:26.351Z,85.10
2022-11-17T06:00:53.301Z,84.70
2022-11-17T06:03:21.823Z,84.50
2022-11-17T06:05:48.432Z,84.50
2022-11-17T06:08:15.056Z,84.50
2022-11-17T06:10:41.766Z,84.40
2022-11-17T06:13:08.455Z,84.80
2022-11-17T06:15:35.365Z,85.00
2022-11-17T06:18:07.287Z,85.00
2022-11-17T06:20:35.654Z,84.80
2022-11-17T06:23:04.405Z,84.80
2022-11-17T06:25:32.496Z,84.70
2022-11-17T06:28:02.160Z,85.30
2022-11-17T06:30:29.036Z,85.70
2022-11-17T06:32:56.415Z,85.80
2022-11-17T06:35:23.260Z,86.70
2022-11-17T06:37:49.871Z,87.00
2022-11-17T06:40:16.528Z,87.50
2022-11-17T06:43:12.624Z,87.80
2022-11-17T06:45:40.280Z,87.90
2022-11-17T06:48:07.552Z,87.70
2022-11-17T06:50:34.727Z,87.60
2022-11-17T06:53:02.663Z,87.20
2022-11-17T06:55:29.947Z,87.30
2022-11-17T06:58:00.609Z,87.00
2022-11-17T07:00:27.651Z,86.70
2022-11-17T07:02:58.887Z,86.80
2022-11-17T07:05:25.501Z,86.80
2022-11-17T07:07:52.099Z,86.70
2022-11-17T07:10:18.779Z,86.60
2022-11-17T07:12:45.703Z,86.40
2022-11-17T07:15:12.712Z,86.20
2022-11-17T07:17:39.415Z,86.60
2022-11-17T07:20:06.344Z,86.40
2022-11-17T07:22:32.994Z,86.20
2022-11-17T07:24:59.563Z,86.00
2022-11-17T07:27:26.234Z,86.10
2022-11-17T07:29:52.833Z,86.20
2022-11-17T07:32:19.437Z,86.30
2022-11-17T07:34:46.073Z,86.30
2022-11-17T07:37:13.030Z,86.70
2022-11-17T07:39:39.703Z,86.60
2022-11-17T07:42:06.372Z,86.70
2022-11-17T07:44:33.038Z,87.00
2022-11-17T07:46:59.728Z,87.10
2022-11-17T07:49:26.616Z,87.30
2022-11-17T07:51:53.319Z,87.30
2022-11-17T07:54:20.087Z,87.30
2022-11-17T07:56:46.702Z,87.40
2022-11-17T07:59:17.143Z,87.20
2022-11-17T08:01:46.681Z,87.20
2022-11-17T08:04:13.773Z,87.10
2022-11-17T08:06:40.407Z,87.10
2022-11-17T08:09:10.570Z,86.90
2022-11-17T08:11:37.189Z,86.50
2022-11-17T08:14:03.812Z,86.10
2022-11-17T08:16:30.877Z,86.10
2022-11-17T08:18:57.683Z,86.10
2022-11-17T08:21:24.403Z,85.90
2022-11-17T08:23:52.675Z,84.80
2022-11-17T08:26:20.848Z,84.90
2022-11-17T08:28:47.726Z,84.60
2022-11-17T08:31:14.412Z,83.30
2022-11-17T08:33:41.017Z,83.80
2022-11-17T08:36:07.842Z,83.70
2022-11-17T08:38:35.052Z,83.70
2022-11-17T08:41:03.180Z,83.20
2022-11-17T08:43:29.856Z,82.90
2022-11-17T08:45:56.571Z,83.20
2022-11-17T08:48:23.273Z,82.50
2022-11-17T08:50:50.107Z,82.20
2022-11-17T08:53:18.162Z,82.60
2022-11-17T08:55:45.236Z,81.10
2022-11-17T08:58:14.842Z,80.60
2022-11-17T09:00:41.723Z,79.90
2022-11-17T09:03:09.337Z,78.60
2022-11-17T09:05:43.345Z,78.20
2022-11-17T09:08:43.252Z,79.20
2022-11-17T09:10:57.106Z,78.00
2022-11-17T09:13:23.784Z,77.60
2022-11-17T09:15:50.529Z,76.50
2022-11-17T09:18:17.179Z,75.70
2022-11-17T09:20:45.893Z,76.30
2022-11-17T09:23:12.901Z,75.50
2022-11-17T09:25:39.891Z,77.00
2022-11-17T09:28:06.532Z,77.80
2022-11-17T09:30:33.150Z,76.60
2022-11-17T09:32:59.858Z,75.20
2022-11-17T09:35:26.522Z,73.80
2022-11-17T09:37:53.140Z,73.80
2022-11-17T09:40:20.900Z,72.20
2022-11-17T09:42:48.041Z,70.80
2022-11-17T09:45:18.131Z,69.00
2022-11-17T09:47:47.825Z,65.60
2022-11-17T09:50:22.239Z,66.40
2022-11-17T09:52:55.072Z,67.80
2022-11-17T09:55:33.723Z,64.00
2022-11-17T09:58:08.287Z,62.80
2022-11-17T10:00:36.485Z,62.30
2022-11-17T10:03:09.998Z,60.00
2022-11-17T10:05:36.963Z,61.00
2022-11-17T10:08:07.025Z,62.70
2022-11-17T10:10:36.307Z,62.90
2022-11-17T10:13:04.770Z,62.60
2022-11-17T10:15:37.923Z,61.70
2022-11-17T10:18:08.934Z,61.90
2022-11-17T10:20:35.570Z,61.80
2022-11-17T10:23:02.895Z,60.90
2022-11-17T10:25:37.706Z,61.60
2022-11-17T10:28:08.561Z,61.90
2022-11-17T10:30:35.432Z,61.90
2022-11-17T10:33:32.352Z,59.50
2022-11-17T10:35:59.171Z,60.20
2022-11-17T10:38:28.914Z,60.30
2022-11-17T10:40:58.210Z,60.80
2022-11-17T10:45:37.318Z,60.80
2022-11-17T10:48:08.309Z,60.90
2022-11-17T10:50:35.173Z,61.10
2022-11-17T10:53:20.904Z,61.60
2022-11-17T10:55:53.224Z,62.80
2022-11-17T10:58:26.832Z,61.60
2022-11-17T11:00:58.431Z,62.70
2022-11-17T11:03:28.174Z,63.20
2022-11-17T11:05:54.848Z,63.00
2022-11-17T11:08:23.242Z,62.90
2022-11-17T11:10:51.520Z,63.80
2022-11-17T11:13:30.590Z,63.80
2022-11-17T11:15:57.391Z,64.10
2022-11-17T11:18:24.603Z,65.10
2022-11-17T11:20:54.105Z,65.30
2022-11-17T11:23:23.764Z,65.40
2022-11-17T11:26:13.774Z,66.10
2022-11-17T11:28:54.978Z,64.80
2022-11-17T11:31:44.791Z,65.80
2022-11-17T11:34:17.612Z,66.50
2022-11-17T11:36:55.484Z,66.80
2022-11-17T11:39:34.308Z,67.50
2022-11-17T11:42:10.633Z,67.80
2022-11-17T11:44:43.434Z,67.60
2022-11-17T11:47:19.323Z,68.40
2022-11-17T11:49:50.452Z,68.80
2022-11-17T11:52:20.181Z,68.60
2022-11-17T11:55:07.279Z,68.00
2022-11-17T11:57:39.179Z,68.60
2022-11-17T12:00:07.185Z,68.10
2022-11-17T12:03:00.158Z,67.40
2022-11-17T12:06:22.228Z,68.70
2022-11-17T12:08:54.959Z,67.20
2022-11-17T12:11:40.457Z,66.20
2022-11-17T12:14:07.251Z,67.10
2022-11-17T12:16:37.055Z,67.20
2022-11-17T12:19:23.687Z,68.10
2022-11-17T12:21:54.398Z,67.60
2022-11-17T12:24:25.443Z,67.80
2022-11-17T12:26:54.707Z,68.40
2022-11-17T12:29:21.491Z,67.40
2022-11-17T12:31:49.841Z,68.20
2022-11-17T12:34:25.948Z,68.30
2022-11-17T12:37:11.341Z,68.20
2022-11-17T12:39:56.374Z,68.70
2022-11-17T12:42:23.184Z,68.00
2022-11-17T12:44:57.996Z,68.00
2022-11-17T12:47:24.648Z,69.10
2022-11-17T12:50:06.719Z,68.50
2022-11-17T12:52:36.603Z,67.60
2022-11-17T12:55:13.372Z,67.20
2022-11-17T12:57:40.314Z,66.60
2022-11-17T13:00:33.565Z,67.10
2022-11-17T13:03:08.788Z,66.30
2022-11-17T13:05:36.756Z,67.40
2022-11-17T13:08:23.203Z,67.10
2022-11-17T13:10:50.905Z,67.20
2022-11-17T13:13:17.527Z,67.20
2022-11-17T13:15:44.282Z,66.80
2022-11-17T13:18:15.471Z,66.80
2022-11-17T13:20:45.843Z,66.30
2022-11-17T13:23:20.568Z,66.50
2022-11-17T13:25:47.357Z,65.50
2022-11-17T13:28:31.819Z,65.90
2022-11-17T13:30:59.280Z,65.40
2022-11-17T13:33:26.256Z,65.60
2022-11-17T13:36:08.778Z,64.40
2022-11-17T13:38:35.541Z,65.00
2022-11-17T13:41:02.534Z,64.60
2022-11-17T13:43:33.046Z,65.00
2022-11-17T13:46:03.547Z,65.20
2022-11-17T13:48:37.802Z,64.80
2022-11-17T13:51:16.781Z,65.10
2022-11-17T13:53:45.234Z,65.20
2022-11-17T13:56:23.805Z,65.10
2022-11-17T13:58:51.285Z,64.30
2022-11-17T14:01:27.797Z,65.30
2022-11-17T14:04:15.328Z,65.20
2022-11-17T14:06:54.110Z,65.00
2022-11-17T14:09:21.096Z,64.10
2022-11-17T14:11:47.786Z,63.70
2022-11-17T14:14:17.483Z,60.50
2022-11-17T14:16:44.443Z,55.90
2022-11-17T14:19:14.215Z,53.50
2022-11-17T14:22:00.404Z,51.20
2022-11-17T14:24:27.246Z,50.60
2022-11-17T14:26:54.153Z,50.10
2022-11-17T14:29:21.847Z,50.50
2022-11-17T14:31:48.542Z,51.90
2022-11-17T14:34:15.342Z,52.80
2022-11-17T14:36:42.210Z,54.10
2022-11-17T14:39:13.581Z,54.60
2022-11-17T14:41:41.710Z,53.90
2022-11-17T14:44:08.887Z,52.70
2022-11-17T14:46:35.850Z,51.90
2022-11-17T14:49:02.506Z,51.70
2022-11-17T14:51:29.156Z,52.00
2022-11-17T14:53:55.788Z,51.40
2022-11-17T14:56:23.658Z,50.90
2022-11-17T14:58:58.181Z,50.00
2022-11-17T15:01:30.376Z,52.80
2022-11-17T15:03:58.323Z,55.50
2022-11-17T15:06:25.146Z,57.40
2022-11-17T15:08:59.032Z,59.10
2022-11-17T15:11:26.565Z,59.60
2022-11-17T15:13:53.257Z,60.10
2022-11-17T15:16:19.960Z,61.40
2022-11-17T15:18:49.609Z,62.50
2022-11-17T15:21:16.777Z,63.30
2022-11-17T15:23:43.736Z,63.00
2022-11-17T15:26:12.373Z,63.30
2022-11-17T15:28:39.394Z,63.70
2022-11-17T15:31:13.595Z,63.80
2022-11-17T15:33:40.867Z,63.90
2022-11-17T15:36:08.904Z,64.90
2022-11-17T15:38:36.154Z,65.20
2022-11-17T15:41:03.344Z,65.50
2022-11-17T15:43:31.143Z,65.50
2022-11-17T15:46:08.425Z,66.10
2022-11-17T15:48:38.788Z,66.30
2022-11-17T15:51:06.699Z,66.80
2022-11-17T15:53:34.398Z,66.20
2022-11-17T15:56:04.212Z,65.90
2022-11-17T15:58:30.896Z,66.30
2022-11-17T16:01:14.094Z,66.30
2022-11-17T16:03:41.613Z,66.50
2022-11-17T16:06:08.793Z,66.80
2022-11-17T16:08:35.668Z,66.40
2022-11-17T16:11:02.335Z,66.30
2022-11-17T16:13:29.169Z,66.80
2022-11-17T16:15:55.919Z,66.60
2022-11-17T16:18:22.816Z,65.90
2022-11-17T16:20:49.715Z,65.30
2022-11-17T16:23:16.738Z,65.10
2022-11-17T16:25:44.225Z,65.10
2022-11-17T16:28:11.488Z,65.10
2022-11-17T16:30:38.599Z,65.20
2022-11-17T16:33:12.562Z,65.00
2022-11-17T16:35:40.372Z,65.00
2022-11-17T16:38:07.600Z,65.10
2022-11-17T16:40:35.526Z,65.10
2022-11-17T16:43:02.176Z,65.20
2022-11-17T16:45:28.811Z,65.10
2022-11-17T16:47:55.550Z,65.20
2022-11-17T16:50:22.203Z,65.40
2022-11-17T16:52:48.815Z,65.30
2022-11-17T16:55:15.578Z,65.40
2022-11-17T16:57:42.270Z,65.40
2022-11-17T17:00:09.361Z,65.80
2022-11-17T17:02:36.045Z,65.30
2022-11-17T17:05:02.784Z,65.30
2022-11-17T17:07:29.519Z,65.50
2022-11-17T17:09:56.195Z,65.70
2022-11-17T17:12:22.961Z,66.00
2022-11-17T17:14:49.553Z,66.80
2022-11-17T17:17:16.357Z,67.60
2022-11-17T17:19:42.947Z,68.80
2022-11-17T17:22:09.617Z,69.00
2022-11-17T17:24:36.315Z,69.50
2022-11-17T17:27:02.945Z,69.90
2022-11-17T17:29:29.611Z,70.10
2022-11-17T17:31:56.221Z,70.00
2022-11-17T17:34:22.884Z,70.00
2022-11-17T17:36:49.578Z,70.50
2022-11-17T17:39:16.545Z,70.60
2022-11-17T17:41:44.310Z,70.30
2022-11-17T17:44:14.170Z,70.20
2022-11-17T17:46:42.732Z,70.20
2022-11-17T17:49:09.733Z,70.30
2022-11-17T17:51:37.677Z,70.20
2022-11-17T17:54:04.466Z,70.60
2022-11-17T17:56:31.204Z,70.50
2022-11-17T17:58:58.216Z,70.70
2022-11-17T18:01:25.900Z,70.50
2022-11-17T18:03:53.853Z,71.30
2022-11-17T18:06:21.894Z,71.90
2022-11-17T18:08:49.346Z,71.80
2022-11-17T18:11:19.856Z,71.60
2022-11-17T18:13:48.102Z,71.40
2022-11-17T18:16:15.998Z,72.00
2022-11-17T18:18:45.148Z,72.10
2022-11-17T18:21:13.036Z,72.20
2022-11-17T18:23:40.884Z,72.10
2022-11-17T18:26:18.298Z,72.10
2022-11-17T18:28:52.627Z,72.10
2022-11-17T18:31:19.752Z,72.20
2022-11-17T18:33:49.719Z,72.30
2022-11-17T18:36:16.379Z,72.40
2022-11-17T18:38:43.066Z,72.80
2022-11-17T18:41:13.951Z,72.60
2022-11-17T18:43:41.070Z,72.60
2022-11-17T18:46:08.898Z,72.80
2022-11-17T18:48:36.887Z,73.10
2022-11-17T18:51:19.164Z,73.10
2022-11-17T18:53:47.247Z,73.90
2022-11-17T18:56:14.697Z,73.50
2022-11-17T18:58:42.046Z,73.40
2022-11-17T19:01:10.349Z,73.10
2022-11-17T19:03:37.572Z,73.50
2022-11-17T19:06:05.042Z,73.30
2022-11-17T19:08:32.784Z,73.10
2022-11-17T19:11:05.675Z,74.30
2022-11-17T19:13:33.749Z,74.50
2022-11-17T19:16:11.562Z,74.60
2022-11-17T19:18:38.204Z,75.90
2022-11-17T19:21:09.568Z,75.60
2022-11-17T19:23:40.441Z,75.40
2022-11-17T19:26:12.126Z,74.70
2022-11-17T19:28:39.345Z,75.40
2022-11-17T19:31:07.272Z,75.50
2022-11-17T19:33:34.879Z,75.50
2022-11-17T19:36:05.322Z,75.40
2022-11-17T19:38:33.787Z,75.30
2022-11-17T19:41:04.516Z,75.30
2022-11-17T19:43:33.014Z,75.80
2022-11-17T19:46:00.742Z,75.90
2022-11-17T19:48:27.959Z,75.00
2022-11-17T19:50:56.165Z,75.80
2022-11-17T19:53:23.342Z,76.40
2022-11-17T19:55:50.087Z,76.30
2022-11-17T19:58:17.448Z,76.10
2022-11-17T20:00:45.979Z,76.80
2022-11-17T20:03:12.883Z,76.40
2022-11-17T20:05:39.576Z,76.30
2022-11-17T20:08:06.403Z,75.90
2022-11-17T20:10:33.308Z,76.30
2022-11-17T20:13:00.263Z,76.10
2022-11-17T20:15:34.533Z,76.30
2022-11-17T20:18:01.930Z,76.30
2022-11-17T20:20:28.562Z,76.70
2022-11-17T20:22:55.616Z,76.00
2022-11-17T20:25:22.297Z,76.70
2022-11-17T20:27:48.983Z,76.50
2022-11-17T20:30:15.886Z,76.50
2022-11-17T20:32:42.550Z,77.00
2022-11-17T20:35:09.270Z,76.80
2022-11-17T20:37:35.882Z,77.30
2022-11-17T20:40:02.673Z,77.90
2022-11-17T20:42:29.317Z,78.00
2022-11-17T20:44:55.984Z,77.80
2022-11-17T20:47:27.371Z,77.60
2022-11-17T20:49:55.411Z,78.40
2022-11-17T20:52:22.128Z,79.70
2022-11-17T20:54:48.952Z,80.60
2022-11-17T20:57:15.604Z,81.50
2022-11-17T20:59:42.247Z,81.10
2022-11-17T21:02:09.611Z,80.80
2022-11-17T21:04:36.216Z,80.70
2022-11-17T21:07:03.053Z,80.60
2022-11-17T21:09:29.785Z,79.70
2022-11-17T21:11:56.388Z,79.20
2022-11-17T21:14:25.772Z,78.80
2022-11-17T21:16:53.300Z,77.70
2022-11-17T21:19:19.959Z,76.60
2022-11-17T21:21:46.558Z,76.00
2022-11-17T21:24:13.351Z,75.70
2022-11-17T21:26:40.014Z,75.50
2022-11-17T21:29:07.201Z,76.50
2022-11-17T21:31:33.997Z,77.70
2022-11-17T21:34:02.006Z,80.40
2022-11-17T21:36:29.559Z,81.90
2022-11-17T21:38:57.061Z,83.50
2022-11-17T21:41:27.592Z,84.10
2022-11-17T21:43:55.070Z,82.40
2022-11-17T21:46:22.923Z,83.60
2022-11-17T21:48:50.635Z,84.20
2022-11-17T21:51:21.605Z,83.30
2022-11-17T21:53:52.019Z,83.40
2022-11-17T21:56:18.611Z,84.60
2022-11-17T21:58:45.213Z,85.40
2022-11-17T22:01:13.258Z,85.00
2022-11-17T22:03:40.902Z,84.80
2022-11-17T22:06:18.293Z,84.60
2022-11-17T22:08:45.473Z,85.00
2022-11-17T22:11:12.974Z,85.30
2022-11-17T22:13:39.953Z,85.00
2022-11-17T22:16:11.956Z,84.20
2022-11-17T22:18:38.700Z,83.90
2022-11-17T22:21:06.682Z,84.40
2022-11-17T22:23:33.366Z,84.20
2022-11-17T22:26:01.338Z,84.40
2022-11-17T22:28:28.314Z,84.40
2022-11-17T22:30:55.015Z,84.50
2022-11-17T22:33:22.571Z,85.00
2022-11-17T22:35:50.306Z,84.90
2022-11-17T22:38:17.033Z,85.10
2022-11-17T22:40:43.843Z,85.60
2022-11-17T22:43:14.982Z,86.20
2022-11-17T22:45:42.589Z,86.20
2022-11-17T22:48:09.427Z,86.20
2022-11-17T22:50:36.699Z,85.90
2022-11-17T22:53:03.648Z,86.10
2022-11-17T22:55:32.606Z,85.50
2022-11-17T22:57:59.450Z,86.10
2022-11-17T23:00:26.278Z,85.90
2022-11-17T23:02:52.961Z,86.20
2022-11-17T23:05:21.611Z,86.10
2022-11-17T23:07:48.785Z,86.50
2022-11-17T23:10:15.395Z,86.50
2022-11-17T23:12:42.078Z,86.40
2022-11-17T23:15:08.967Z,85.60
2022-11-17T23:17:35.790Z,86.00
2022-11-17T23:20:02.582Z,85.80
2022-11-17T23:22:29.321Z,86.00
2022-11-17T23:24:56.148Z,85.70
2022-11-17T23:27:22.900Z,85.80
2022-11-17T23:29:49.927Z,85.90
2022-11-17T23:32:16.535Z,85.70
2022-11-17T23:34:43.139Z,85.80
2022-11-17T23:37:09.966Z,86.20
2022-11-17T23:39:36.575Z,86.20
2022-11-17T23:42:03.282Z,85.50
2022-11-17T23:44:30.335Z,86.50
2022-11-17T23:46:57.555Z,85.90
2022-11-17T23:49:25.992Z,85.60
2022-11-17T23:51:52.664Z,85.10
2022-11-17T23:54:19.748Z,85.00
2022-11-17T23:56:48.819Z,84.80
2022-11-17T23:59:15.795Z,85.10
